Time;durP1;ratioP1;P1;durP2;ratioP2;P2;SDS_P1;SDS_P2;PMS_P1;PMS_P2;Temp;Humidity;BMP_temperature;BMP_pressure;BME280_temperature;BME280_humidity;BME280_pressure;Samples;Min_cycle;Max_cycle;Signal;HPM_P1;HPM_P2
2022/12/01 05:02:12;;;;;;;40.87;19.10;;;4.60;99.90;;;;;;5168895;23;21042;-72
2022/12/01 05:04:40;;;;;;;33.07;18.40;;;4.60;99.90;;;;;;4950397;29;20453;-72
2022/12/01 05:07:07;;;;;;;34.10;18.20;;;4.60;99.90;;;;;;4949885;29;20489;-73
2022/12/01 05:09:34;;;;;;;30.20;16.87;;;4.60;99.90;;;;;;4949907;29;20463;-72
2022/12/01 05:12:01;;;;;;;31.03;16.87;;;4.60;99.90;;;;;;4949898;29;20481;-72
2022/12/01 05:14:28;;;;;;;37.87;19.80;;;4.60;99.90;;;;;;4949629;29;20453;-73
2022/12/01 05:16:56;;;;;;;34.90;18.70;;;4.70;99.90;;;;;;4949028;28;20454;-73
2022/12/01 05:22:10;;;;;;;37.17;18.27;;;4.70;99.90;;;;;;4948816;28;20884;-72
2022/12/01 05:24:36;;;;;;;34.83;17.43;;;4.70;99.90;;;;;;4949089;28;20937;-72
2022/12/01 05:27:03;;;;;;;33.03;17.43;;;4.60;99.90;;;;;;4949526;29;20500;-72
2022/12/01 05:29:31;;;;;;;32.43;16.67;;;4.60;99.90;;;;;;4949752;29;20465;-73
2022/12/01 05:31:58;;;;;;;34.53;17.97;;;4.60;99.90;;;;;;4946942;29;21318;-67
2022/12/01 05:34:26;;;;;;;35.07;18.03;;;4.70;99.90;;;;;;4950016;28;20840;-67
2022/12/01 05:36:53;;;;;;;36.27;18.43;;;4.60;99.90;;;;;;4949672;29;20449;-75
2022/12/01 05:39:20;;;;;;;33.70;18.10;;;4.60;99.90;;;;;;4949532;29;20552;-75
2022/12/01 05:41:47;;;;;;;32.00;16.40;;;4.60;99.90;;;;;;4949126;29;20482;-76
2022/12/01 05:44:14;;;;;;;35.83;17.50;;;4.60;99.90;;;;;;4949689;29;20460;-75
2022/12/01 05:46:40;;;;;;;32.77;18.00;;;4.60;99.90;;;;;;4949613;28;20469;-75
2022/12/01 05:49:07;;;;;;;36.23;18.60;;;4.70;99.90;;;;;;4949108;29;20449;-75
2022/12/01 05:51:35;;;;;;;31.17;17.47;;;4.70;99.90;;;;;;4949234;29;20485;-75
2022/12/01 05:54:02;;;;;;;33.43;18.30;;;4.70;99.90;;;;;;4949537;29;20454;-76
2022/12/01 05:56:29;;;;;;;35.23;18.13;;;4.60;99.90;;;;;;4949052;29;20565;-78
2022/12/01 05:58:56;;;;;;;34.33;19.30;;;4.70;99.90;;;;;;4948853;29;20453;-76
2022/12/01 06:01:23;;;;;;;33.40;19.00;;;4.60;99.90;;;;;;4948973;29;20741;-76
2022/12/01 06:03:49;;;;;;;32.07;18.00;;;4.70;99.90;;;;;;4948877;29;20461;-75
2022/12/01 06:06:16;;;;;;;35.57;18.40;;;4.60;99.90;;;;;;4949562;29;20454;-76
2022/12/01 06:08:44;;;;;;;30.23;17.20;;;4.60;99.90;;;;;;4948979;29;20500;-77
2022/12/01 06:11:11;;;;;;;29.53;16.90;;;4.60;99.90;;;;;;4949142;29;20841;-76
2022/12/01 06:13:38;;;;;;;32.10;17.10;;;4.60;99.90;;;;;;4948457;29;21129;-76
2022/12/01 06:16:07;;;;;;;35.07;17.43;;;4.60;99.90;;;;;;4949302;29;20454;-77
2022/12/01 06:18:35;;;;;;;33.43;17.33;;;4.50;99.90;;;;;;4949227;28;20457;-76
2022/12/01 06:21:03;;;;;;;32.60;17.30;;;4.60;99.90;;;;;;4949077;29;20479;-75
2022/12/01 06:23:30;;;;;;;30.60;17.80;;;4.60;99.90;;;;;;4947932;29;20453;-76
2022/12/01 06:25:58;;;;;;;35.37;19.63;;;4.60;99.90;;;;;;4948630;29;20465;-75
2022/12/01 06:28:25;;;;;;;29.47;16.07;;;4.60;99.90;;;;;;4948902;29;20497;-75
2022/12/01 06:30:51;;;;;;;37.27;18.67;;;4.60;99.90;;;;;;4947234;29;20477;-75
2022/12/01 06:33:18;;;;;;;37.77;20.73;;;4.70;99.90;;;;;;4947648;29;20821;-76
2022/12/01 06:35:45;;;;;;;36.10;18.57;;;4.60;99.90;;;;;;4948618;28;20457;-75
2022/12/01 06:38:12;;;;;;;38.43;20.67;;;4.60;99.90;;;;;;4948686;29;20453;-76
2022/12/01 06:40:39;;;;;;;47.13;23.30;;;4.70;99.90;;;;;;4948524;29;20469;-75
2022/12/01 06:43:07;;;;;;;36.90;18.27;;;4.70;99.90;;;;;;4947417;29;20934;-75
2022/12/01 06:45:33;;;;;;;33.10;18.23;;;4.70;99.90;;;;;;4948375;29;20457;-75
2022/12/01 06:48:00;;;;;;;34.87;18.73;;;4.70;99.90;;;;;;4948026;29;20508;-75
2022/12/01 06:50:27;;;;;;;39.53;18.00;;;4.70;99.90;;;;;;4947918;28;20465;-75
2022/12/01 06:52:54;;;;;;;34.77;18.50;;;4.70;99.90;;;;;;4947301;29;20468;-75
2022/12/01 06:55:21;;;;;;;31.43;17.77;;;4.70;99.90;;;;;;4947941;29;20457;-75
2022/12/01 06:57:48;;;;;;;30.73;17.33;;;4.70;99.90;;;;;;4948301;29;20446;-74
2022/12/01 07:00:17;;;;;;;33.00;18.00;;;4.70;99.90;;;;;;4945541;29;20983;-75
2022/12/01 07:02:44;;;;;;;34.67;17.63;;;4.70;99.90;;;;;;4946955;29;20468;-74
2022/12/01 07:05:10;;;;;;;35.07;18.13;;;4.60;99.90;;;;;;4948098;29;20836;-74
2022/12/01 07:07:38;;;;;;;30.93;15.97;;;4.60;99.90;;;;;;4948081;29;20497;-75
2022/12/01 07:10:06;;;;;;;30.50;17.30;;;4.60;99.90;;;;;;4947917;29;20468;-75
2022/12/01 07:12:33;;;;;;;30.53;15.60;;;4.60;99.90;;;;;;4947164;29;20473;-75
2022/12/01 07:15:00;;;;;;;29.27;16.53;;;4.60;99.90;;;;;;4947758;29;20651;-75
2022/12/01 07:17:28;;;;;;;34.37;17.87;;;4.60;99.90;;;;;;4946767;29;20584;-73
2022/12/01 07:19:55;;;;;;;30.97;17.43;;;4.70;99.90;;;;;;4947561;29;20589;-75
2022/12/01 07:22:22;;;;;;;29.63;16.70;;;4.70;99.90;;;;;;4946653;29;20489;-76
2022/12/01 07:24:49;;;;;;;31.20;16.60;;;4.70;99.90;;;;;;4947647;29;20734;-75
2022/12/01 07:27:15;;;;;;;31.77;16.90;;;4.70;99.90;;;;;;4947493;29;20457;-75
2022/12/01 07:29:42;;;;;;;32.87;16.63;;;4.80;99.90;;;;;;4947327;29;20465;-75
2022/12/01 07:32:09;;;;;;;35.93;17.90;;;4.80;99.90;;;;;;4946609;29;20682;-75
2022/12/01 07:34:37;;;;;;;29.60;16.70;;;4.80;99.90;;;;;;4947702;29;20462;-75
2022/12/01 07:37:04;;;;;;;31.87;17.00;;;4.80;99.90;;;;;;4947621;28;20909;-75
2022/12/01 07:39:31;;;;;;;30.20;17.10;;;4.80;99.90;;;;;;4947332;29;20536;-76
2022/12/01 07:41:57;;;;;;;35.30;18.17;;;4.80;99.90;;;;;;4946481;29;20481;-77
2022/12/01 07:44:24;;;;;;;29.77;16.77;;;4.80;99.90;;;;;;4947066;29;20453;-77
2022/12/01 07:46:51;;;;;;;28.83;17.60;;;4.80;99.90;;;;;;4946788;28;20461;-76
2022/12/01 07:49:18;;;;;;;26.23;15.77;;;4.80;99.90;;;;;;4946953;29;20501;-76
2022/12/01 07:51:46;;;;;;;31.70;17.30;;;4.70;99.90;;;;;;4946568;29;20495;-76
2022/12/01 07:54:14;;;;;;;28.13;15.83;;;4.70;99.90;;;;;;4947030;29;20980;-76
2022/12/01 07:56:40;;;;;;;34.17;16.70;;;4.70;99.90;;;;;;4947089;29;20499;-76
2022/12/01 07:59:08;;;;;;;30.07;15.80;;;4.80;99.90;;;;;;4947082;29;20456;-76
2022/12/01 08:01:35;;;;;;;28.47;15.87;;;4.70;99.90;;;;;;4946410;28;20497;-75
2022/12/01 08:04:01;;;;;;;34.43;17.37;;;4.70;99.90;;;;;;4946739;29;21266;-76
2022/12/01 08:06:28;;;;;;;30.23;16.33;;;4.70;99.90;;;;;;4947146;29;20457;-76
2022/12/01 08:08:56;;;;;;;29.33;15.00;;;4.70;99.90;;;;;;4946642;29;20500;-76
2022/12/01 08:11:25;;;;;;;33.97;16.93;;;4.70;99.90;;;;;;4947081;29;20775;-77
2022/12/01 08:13:53;;;;;;;30.27;16.77;;;4.70;99.90;;;;;;4946025;29;20462;-76
2022/12/01 08:16:23;;;;;;;32.53;16.40;;;4.70;99.90;;;;;;4947062;29;20457;-76
2022/12/01 08:18:50;;;;;;;32.23;17.07;;;4.70;99.90;;;;;;4947066;29;20450;-76
2022/12/01 08:21:19;;;;;;;28.57;16.10;;;4.70;99.90;;;;;;4946763;29;20473;-76
2022/12/01 08:23:46;;;;;;;29.60;17.70;;;4.80;99.90;;;;;;4946184;29;20958;-76
2022/12/01 08:26:16;;;;;;;28.10;16.20;;;4.70;99.90;;;;;;4946571;29;20463;-76
2022/12/01 08:28:44;;;;;;;30.93;16.17;;;4.70;99.90;;;;;;4946666;29;20497;-76
2022/12/01 08:31:13;;;;;;;29.97;17.13;;;4.80;99.90;;;;;;4946724;29;20485;-76
2022/12/01 08:33:39;;;;;;;30.37;16.83;;;4.80;99.90;;;;;;4946214;29;20853;-75
2022/12/01 08:36:07;;;;;;;30.47;17.80;;;4.80;99.90;;;;;;4947067;29;20457;-76
2022/12/01 08:38:34;;;;;;;34.33;17.47;;;4.80;99.90;;;;;;4946800;29;20460;-76
2022/12/01 08:41:02;;;;;;;33.20;18.23;;;4.80;99.90;;;;;;4946032;29;20918;-76
2022/12/01 08:43:30;;;;;;;29.83;16.77;;;4.80;99.90;;;;;;4946303;29;20461;-75
2022/12/01 08:45:58;;;;;;;27.40;15.40;;;4.80;99.90;;;;;;4946765;29;20453;-76
2022/12/01 08:48:28;;;;;;;32.03;17.23;;;4.80;99.90;;;;;;4946868;29;20848;-76
2022/12/01 08:51:01;;;;;;;33.00;17.00;;;4.80;99.90;;;;;;4947067;29;20485;-76
2022/12/01 08:53:28;;;;;;;32.10;16.67;;;4.80;99.90;;;;;;4945717;29;20845;-75
2022/12/01 08:55:55;;;;;;;31.20;16.30;;;4.80;99.90;;;;;;4946756;29;20458;-77
2022/12/01 08:58:22;;;;;;;30.97;15.07;;;4.70;99.90;;;;;;4946548;28;20464;-76
2022/12/01 09:00:50;;;;;;;36.23;16.57;;;4.70;99.90;;;;;;4949554;29;20819;-77
2022/12/01 09:03:17;;;;;;;34.97;17.40;;;4.70;99.90;;;;;;4950004;29;20453;-77
2022/12/01 09:05:43;;;;;;;28.20;15.87;;;4.80;99.90;;;;;;4949829;29;20949;-75
2022/12/01 09:10:55;;;;;;;28.47;15.30;;;4.80;99.90;;;;;;4949815;29;20460;-77
2022/12/01 09:13:21;;;;;;;31.37;16.27;;;4.80;99.90;;;;;;4949235;29;20457;-75
2022/12/01 09:15:56;;;;;;;30.87;16.80;;;4.80;99.90;;;;;;4949731;29;20457;-74
2022/12/01 09:18:23;;;;;;;33.03;16.00;;;4.80;99.90;;;;;;4949330;29;20981;-73
2022/12/01 09:20:50;;;;;;;29.17;16.63;;;4.90;99.90;;;;;;4949597;29;20878;-75
2022/12/01 09:23:17;;;;;;;31.37;15.47;;;4.90;99.90;;;;;;4948713;29;20461;-75
2022/12/01 09:25:44;;;;;;;28.63;16.23;;;4.90;99.90;;;;;;4949356;29;20717;-74
2022/12/01 09:28:10;;;;;;;28.10;15.40;;;4.90;99.90;;;;;;4949448;29;20496;-75
2022/12/01 09:30:37;;;;;;;31.53;16.50;;;4.90;99.90;;;;;;4949664;29;20484;-75
2022/12/01 09:33:05;;;;;;;32.40;17.10;;;5.00;99.90;;;;;;4948083;29;20453;-77
2022/12/01 09:35:32;;;;;;;34.93;18.30;;;4.90;99.90;;;;;;4949424;28;20453;-77
2022/12/01 09:37:59;;;;;;;32.07;15.87;;;5.00;99.90;;;;;;4949320;29;20827;-77
2022/12/01 09:40:32;;;;;;;28.03;15.90;;;5.00;99.90;;;;;;4949334;29;20460;-77
2022/12/01 09:43:02;;;;;;;34.20;17.10;;;5.10;99.90;;;;;;4948887;29;20454;-77
2022/12/01 09:45:32;;;;;;;27.30;15.67;;;5.00;99.90;;;;;;4949517;29;20454;-75
2022/12/01 09:48:02;;;;;;;31.67;15.17;;;5.10;99.90;;;;;;4949186;29;20450;-74
2022/12/01 09:50:32;;;;;;;31.20;16.00;;;5.00;99.90;;;;;;4949308;29;20962;-78
2022/12/01 09:53:02;;;;;;;31.87;17.60;;;5.00;99.90;;;;;;4949094;28;20441;-76
2022/12/01 09:55:31;;;;;;;30.43;16.37;;;5.10;99.90;;;;;;4948819;29;20430;-76
2022/12/01 09:58:00;;;;;;;30.70;16.57;;;5.10;99.90;;;;;;4948801;29;20874;-75
2022/12/01 10:00:31;;;;;;;28.47;15.60;;;5.20;99.90;;;;;;4948737;29;20980;-76
2022/12/01 10:03:13;;;;;;;33.70;16.93;;;5.20;99.90;;;;;;4948182;29;20473;-75
2022/12/01 10:05:46;;;;;;;30.67;17.13;;;5.20;99.90;;;;;;4948609;29;20465;-75
2022/12/01 10:08:17;;;;;;;30.90;16.33;;;5.20;99.90;;;;;;4948987;29;20485;-75
2022/12/01 10:10:47;;;;;;;29.17;16.43;;;5.20;99.90;;;;;;4948476;28;20489;-75
2022/12/01 10:13:18;;;;;;;26.27;14.73;;;5.20;99.90;;;;;;4948070;29;20464;-77
2022/12/01 10:15:51;;;;;;;30.43;16.23;;;5.20;99.90;;;;;;4949204;28;20437;-77
2022/12/01 10:18:31;;;;;;;27.33;15.70;;;5.20;99.90;;;;;;4948504;29;20946;-76
2022/12/01 10:21:07;;;;;;;31.40;15.90;;;5.30;99.90;;;;;;4948277;29;20469;-77
2022/12/01 10:23:47;;;;;;;30.63;15.97;;;5.30;99.90;;;;;;4947727;29;20598;-77
2022/12/01 10:26:18;;;;;;;27.30;15.47;;;5.30;99.90;;;;;;4948874;29;20446;-77
2022/12/01 10:28:53;;;;;;;25.90;15.47;;;5.40;99.90;;;;;;4948990;29;20480;-77
2022/12/01 10:31:23;;;;;;;27.93;16.53;;;5.40;99.90;;;;;;4949159;29;20485;-74
2022/12/01 10:33:59;;;;;;;30.17;15.83;;;5.40;99.90;;;;;;4948160;29;20454;-74
2022/12/01 10:36:30;;;;;;;25.50;15.10;;;5.50;99.90;;;;;;4949045;29;20445;-76
2022/12/01 10:38:57;;;;;;;31.50;17.13;;;5.50;99.90;;;;;;4948519;29;20922;-75
2022/12/01 10:41:27;;;;;;;28.63;15.40;;;5.50;99.90;;;;;;4948475;28;20993;-76
2022/12/01 10:43:59;;;;;;;26.60;14.27;;;5.40;99.90;;;;;;4947716;29;20473;-76
2022/12/01 10:46:32;;;;;;;35.57;16.00;;;5.50;99.90;;;;;;4948687;29;20446;-76
2022/12/01 10:49:00;;;;;;;26.73;15.17;;;5.50;99.90;;;;;;4948448;29;20485;-75
2022/12/01 10:51:29;;;;;;;24.43;14.67;;;5.50;99.90;;;;;;4948350;29;20946;-77
2022/12/01 10:54:06;;;;;;;26.97;15.10;;;5.50;99.90;;;;;;4947716;29;20461;-76
2022/12/01 10:56:34;;;;;;;26.70;15.03;;;5.60;99.90;;;;;;4948233;29;20453;-77
2022/12/01 10:59:04;;;;;;;31.03;15.97;;;5.60;99.90;;;;;;4948744;29;20457;-77
2022/12/01 11:01:34;;;;;;;30.23;15.40;;;5.60;99.90;;;;;;4948216;29;20474;-77
2022/12/01 11:04:07;;;;;;;25.63;14.80;;;5.70;99.90;;;;;;4948256;28;20453;-77
2022/12/01 11:06:37;;;;;;;25.05;15.20;;;5.70;99.90;;;;;;4948103;29;20456;-75
2022/12/01 11:09:07;;;;;;;31.10;16.00;;;5.70;99.90;;;;;;4948431;29;20252;-77
2022/12/01 11:11:36;;;;;;;28.70;15.53;;;5.80;99.90;;;;;;4947862;29;20481;-77
2022/12/01 11:14:06;;;;;;;24.60;13.73;;;5.90;99.90;;;;;;4947959;29;20469;-77
2022/12/01 11:16:39;;;;;;;29.30;15.17;;;5.80;99.90;;;;;;4947915;29;20453;-75
2022/12/01 11:19:21;;;;;;;27.83;14.60;;;5.90;99.90;;;;;;4948348;29;20456;-77
2022/12/01 11:21:51;;;;;;;24.33;15.03;;;5.90;99.90;;;;;;4946827;28;20483;-76
2022/12/01 11:24:45;;;;;;;27.33;15.10;;;5.90;99.90;;;;;;4948003;29;20476;-77
2022/12/01 11:27:18;;;;;;;26.63;15.77;;;5.90;99.90;;;;;;4913398;28;21604;-77
2022/12/01 11:29:47;;;;;;;25.67;15.00;;;5.90;99.90;;;;;;4947441;28;20492;-77
2022/12/01 11:32:21;;;;;;;24.40;13.73;;;5.90;99.90;;;;;;4947326;28;20461;-77
2022/12/01 11:34:54;;;;;;;27.70;14.40;;;5.90;99.90;;;;;;4947818;28;20452;-77
2022/12/01 11:37:27;;;;;;;23.93;14.00;;;6.00;99.90;;;;;;4948059;29;20472;-76
2022/12/01 11:39:54;;;;;;;23.40;14.00;;;5.90;99.90;;;;;;4948202;28;20445;-76
2022/12/01 11:42:26;;;;;;;25.27;13.80;;;6.00;99.90;;;;;;4947382;29;20560;-76
2022/12/01 11:44:56;;;;;;;26.63;14.77;;;6.00;99.90;;;;;;4948322;29;20817;-75
2022/12/01 11:47:25;;;;;;;24.50;13.63;;;6.00;99.90;;;;;;4947955;29;20457;-77
2022/12/01 11:49:55;;;;;;;25.30;14.53;;;6.00;99.90;;;;;;4947977;29;20501;-76
2022/12/01 11:52:27;;;;;;;24.53;15.37;;;6.10;99.90;;;;;;4946041;28;20452;-74
2022/12/01 11:54:59;;;;;;;22.87;12.77;;;6.30;99.90;;;;;;4946818;28;20473;-75
2022/12/01 11:57:27;;;;;;;25.83;14.50;;;6.30;99.90;;;;;;4947429;29;20466;-77
2022/12/01 11:59:54;;;;;;;20.80;12.80;;;6.40;99.90;;;;;;4947265;29;20548;-77
2022/12/01 12:02:30;;;;;;;24.07;14.33;;;6.30;99.90;;;;;;4947324;29;20481;-75
2022/12/01 12:05:17;;;;;;;23.43;13.80;;;6.30;99.90;;;;;;4947347;29;20574;-77
2022/12/01 12:07:55;;;;;;;27.83;14.70;;;6.30;99.90;;;;;;4948259;29;20446;-78
2022/12/01 12:10:32;;;;;;;23.93;13.37;;;6.20;99.90;;;;;;4948279;29;20497;-77
2022/12/01 12:13:11;;;;;;;25.80;13.53;;;6.30;99.90;;;;;;4946382;29;20456;-75
2022/12/01 12:15:49;;;;;;;24.90;13.70;;;6.30;99.90;;;;;;4947117;29;20441;-77
2022/12/01 12:18:31;;;;;;;23.80;13.33;;;6.20;99.90;;;;;;4947463;29;20532;-77
2022/12/01 12:21:09;;;;;;;23.50;13.67;;;6.20;99.90;;;;;;4950269;29;20477;-77
2022/12/01 12:24:03;;;;;;;23.67;13.70;;;6.30;99.90;;;;;;4949695;29;20457;-78
2022/12/01 12:26:32;;;;;;;24.47;13.77;;;6.30;99.90;;;;;;4950650;29;20472;-76
2022/12/01 12:29:16;;;;;;;25.27;13.90;;;6.30;99.90;;;;;;4951056;29;20494;-77
2022/12/01 12:31:54;;;;;;;20.73;12.37;;;6.30;99.90;;;;;;4950092;29;20917;-76
2022/12/01 12:34:42;;;;;;;29.00;15.90;;;6.30;99.90;;;;;;4953607;28;20433;-78
2022/12/01 12:37:20;;;;;;;23.73;14.20;;;6.30;99.90;;;;;;4953810;29;20440;-77
2022/12/01 12:40:14;;;;;;;23.80;13.30;;;6.30;99.90;;;;;;4953781;29;20433;-78
2022/12/01 12:42:52;;;;;;;22.80;12.97;;;6.30;99.90;;;;;;4952609;29;20452;-77
2022/12/01 12:45:25;;;;;;;25.43;13.67;;;6.40;99.90;;;;;;4953519;28;20543;-77
2022/12/01 12:48:07;;;;;;;20.33;12.30;;;6.40;99.90;;;;;;4953837;29;20445;-78
2022/12/01 12:50:38;;;;;;;23.60;12.70;;;6.40;99.90;;;;;;4953231;29;20508;-78
2022/12/01 12:53:12;;;;;;;25.23;13.50;;;6.40;99.90;;;;;;4953181;29;20465;-78
2022/12/01 12:55:44;;;;;;;28.93;13.23;;;6.50;99.90;;;;;;4953527;29;20445;-78
2022/12/01 12:58:14;;;;;;;24.50;13.83;;;6.50;99.90;;;;;;4952915;29;20457;-77
2022/12/01 13:00:46;;;;;;;23.37;13.23;;;6.50;99.90;;;;;;4953495;29;20469;-78
2022/12/01 13:03:18;;;;;;;22.00;13.00;;;6.60;99.90;;;;;;4953071;29;20460;-78
2022/12/01 13:05:52;;;;;;;21.67;13.33;;;6.60;99.90;;;;;;4953827;29;20816;-77
2022/12/01 13:08:23;;;;;;;24.87;13.77;;;6.60;99.90;;;;;;4953592;29;20946;-78
2022/12/01 13:10:57;;;;;;;25.63;14.23;;;6.70;99.90;;;;;;4953764;29;20505;-79
2022/12/01 13:13:30;;;;;;;22.70;13.67;;;6.70;99.90;;;;;;4949755;28;20448;-76
2022/12/01 13:16:00;;;;;;;22.53;14.23;;;6.70;99.90;;;;;;4949965;29;20445;-76
2022/12/01 13:18:33;;;;;;;25.90;13.73;;;6.70;99.90;;;;;;4948590;29;20458;-76
2022/12/01 13:21:03;;;;;;;21.50;12.53;;;6.70;99.90;;;;;;4950158;29;20473;-77
2022/12/01 13:23:30;;;;;;;24.57;14.53;;;6.70;99.90;;;;;;4949279;29;20958;-76
2022/12/01 13:26:01;;;;;;;24.03;13.80;;;6.80;99.90;;;;;;4950460;29;20453;-75
2022/12/01 13:28:34;;;;;;;23.23;13.37;;;6.80;99.90;;;;;;4946712;29;20948;-75
2022/12/01 13:31:05;;;;;;;24.40;12.80;;;6.80;99.90;;;;;;4949670;29;20499;-78
2022/12/01 13:33:33;;;;;;;24.83;13.13;;;6.80;99.90;;;;;;4950526;29;20481;-75
2022/12/01 13:36:01;;;;;;;24.30;13.30;;;6.80;99.90;;;;;;4951035;29;20454;-77
2022/12/01 13:38:30;;;;;;;26.03;13.13;;;6.80;99.90;;;;;;4951778;29;20453;-77
2022/12/01 13:41:23;;;;;;;23.83;13.40;;;6.80;99.90;;;;;;4948990;29;21062;-75
2022/12/01 13:44:19;;;;;;;26.50;14.10;;;6.80;99.90;;;;;;4947999;28;20873;-75
2022/12/01 13:46:58;;;;;;;23.10;13.97;;;6.80;99.90;;;;;;4949021;28;20436;-74
2022/12/01 13:49:49;;;;;;;25.07;13.57;;;6.80;99.90;;;;;;4948627;29;21005;-78
2022/12/01 13:52:26;;;;;;;21.27;12.20;;;6.80;99.90;;;;;;4935409;28;20492;-78
2022/12/01 13:55:15;;;;;;;24.60;13.23;;;6.80;99.90;;;;;;4950205;28;20882;-78
2022/12/01 13:57:48;;;;;;;23.00;13.63;;;6.80;99.90;;;;;;4950233;28;20457;-76
2022/12/01 14:00:24;;;;;;;25.50;13.80;;;6.80;99.90;;;;;;4951240;29;20808;-78
2022/12/01 14:03:28;;;;;;;23.47;13.70;;;6.80;99.90;;;;;;4949967;28;21240;-77
2022/12/01 14:06:05;;;;;;;22.80;14.10;;;6.80;99.90;;;;;;4950348;29;20461;-74
2022/12/01 14:08:36;;;;;;;25.13;13.67;;;6.90;99.90;;;;;;4951050;29;20472;-77
2022/12/01 14:11:06;;;;;;;25.80;14.03;;;6.90;99.90;;;;;;4951321;29;20505;-76
2022/12/01 14:13:45;;;;;;;23.37;14.40;;;6.90;99.90;;;;;;4951544;29;20465;-77
2022/12/01 14:16:12;;;;;;;24.40;14.90;;;6.90;99.90;;;;;;4952643;29;20441;-79
2022/12/01 14:18:43;;;;;;;23.93;14.40;;;6.90;99.90;;;;;;4951904;29;20536;-79
2022/12/01 14:21:12;;;;;;;27.80;17.57;;;7.00;99.90;;;;;;4951705;29;20977;-78
2022/12/01 14:23:59;;;;;;;26.00;14.30;;;7.00;99.90;;;;;;4951735;29;20834;-78
2022/12/01 14:26:29;;;;;;;25.60;15.47;;;6.90;99.90;;;;;;4952357;29;20569;-77
2022/12/01 14:29:26;;;;;;;23.33;13.53;;;6.90;99.90;;;;;;4952097;29;20525;-79
2022/12/01 14:32:24;;;;;;;21.30;12.70;;;6.90;99.90;;;;;;4948655;28;20872;-78
2022/12/01 14:35:03;;;;;;;25.23;14.07;;;6.90;99.90;;;;;;4952620;29;20799;-79
2022/12/01 14:37:39;;;;;;;26.73;14.80;;;6.90;99.90;;;;;;4951122;29;20458;-78
2022/12/01 14:40:12;;;;;;;24.97;13.80;;;6.90;99.90;;;;;;4951980;29;20445;-77
2022/12/01 14:45:32;;;;;;;21.73;12.63;;;7.00;99.90;;;;;;4952954;29;20432;-77
2022/12/01 14:48:02;;;;;;;23.37;13.70;;;6.90;99.90;;;;;;4951408;29;21057;-79
2022/12/01 14:50:36;;;;;;;23.30;14.00;;;7.00;99.90;;;;;;4951587;29;20508;-75
2022/12/01 14:53:13;;;;;;;25.43;14.70;;;7.00;99.90;;;;;;4952385;29;20438;-78
2022/12/01 14:55:43;;;;;;;23.07;13.60;;;7.00;99.90;;;;;;4951451;28;20469;-78
2022/12/01 14:58:17;;;;;;;23.00;13.93;;;6.90;99.90;;;;;;4951426;29;21468;-78
2022/12/01 15:01:00;;;;;;;30.60;16.40;;;6.90;99.90;;;;;;4952028;29;20479;-78
2022/12/01 15:03:32;;;;;;;31.30;16.33;;;6.90;99.90;;;;;;4950202;29;20453;-75
2022/12/01 15:05:58;;;;;;;27.93;16.03;;;7.00;99.90;;;;;;4949846;29;20460;-77
2022/12/01 15:08:28;;;;;;;32.80;16.53;;;7.00;99.90;;;;;;4950962;29;20469;-77
2022/12/01 15:10:57;;;;;;;25.00;15.40;;;7.00;99.90;;;;;;4951717;29;20505;-77
2022/12/01 15:13:27;;;;;;;24.20;14.80;;;7.00;99.90;;;;;;4951217;28;20453;-78
2022/12/01 15:15:57;;;;;;;25.77;15.10;;;6.90;99.90;;;;;;4951699;29;20841;-75
2022/12/01 15:18:28;;;;;;;25.17;15.63;;;6.90;99.90;;;;;;4953022;29;20484;-77
2022/12/01 15:20:59;;;;;;;26.30;15.43;;;6.90;99.90;;;;;;4954035;29;20491;-75
2022/12/01 15:23:26;;;;;;;26.17;14.73;;;6.90;99.90;;;;;;4953217;29;20448;-77
2022/12/01 15:25:53;;;;;;;28.90;16.40;;;7.00;99.90;;;;;;4950699;29;20970;-78
2022/12/01 15:28:28;;;;;;;28.20;15.43;;;7.00;99.90;;;;;;4950223;29;20461;-78
2022/12/01 15:30:58;;;;;;;27.90;15.73;;;6.90;99.90;;;;;;4950708;29;20499;-78
2022/12/01 15:33:28;;;;;;;24.27;14.30;;;6.90;99.90;;;;;;4949860;28;20460;-78
2022/12/01 15:35:55;;;;;;;24.33;15.17;;;6.90;99.90;;;;;;4950911;29;20957;-78
2022/12/01 15:38:26;;;;;;;35.63;15.60;;;6.90;99.90;;;;;;4950307;29;20457;-77
2022/12/01 15:40:54;;;;;;;25.87;15.53;;;6.90;99.90;;;;;;4950694;29;20556;-78
2022/12/01 15:43:24;;;;;;;25.17;14.80;;;6.90;99.90;;;;;;4950136;28;20989;-77
2022/12/01 15:45:56;;;;;;;23.43;14.20;;;6.90;99.90;;;;;;4950736;29;20461;-75
2022/12/01 15:48:30;;;;;;;25.67;14.97;;;6.90;99.90;;;;;;4950554;29;20436;-78
2022/12/01 15:51:04;;;;;;;27.20;16.43;;;6.90;99.90;;;;;;4950159;29;20503;-78
2022/12/01 15:53:34;;;;;;;27.80;16.10;;;6.90;99.90;;;;;;4949469;29;20453;-78
2022/12/01 15:56:04;;;;;;;34.40;17.33;;;6.90;99.90;;;;;;4950049;29;20505;-78
2022/12/01 15:58:33;;;;;;;35.63;19.07;;;6.80;99.90;;;;;;4950216;29;20450;-78
2022/12/01 16:01:04;;;;;;;30.97;18.60;;;6.80;99.90;;;;;;4950068;28;20473;-77
2022/12/01 16:03:33;;;;;;;31.30;18.00;;;6.80;99.90;;;;;;4948151;29;20985;-73
2022/12/01 16:06:00;;;;;;;30.80;17.53;;;6.90;99.90;;;;;;4947320;29;20461;-74
2022/12/01 16:08:28;;;;;;;30.00;18.20;;;6.80;99.90;;;;;;4949044;28;20453;-74
2022/12/01 16:11:13;;;;;;;28.03;18.57;;;6.80;99.90;;;;;;4949379;28;20879;-72
2022/12/01 16:13:44;;;;;;;30.87;18.33;;;6.80;99.90;;;;;;4953038;29;20476;-77
2022/12/01 16:16:29;;;;;;;27.30;17.67;;;6.80;99.90;;;;;;4951652;29;20453;-77
2022/12/01 16:18:58;;;;;;;30.50;18.50;;;6.70;99.90;;;;;;4950833;29;20457;-77
2022/12/01 16:21:26;;;;;;;30.97;17.10;;;6.70;99.90;;;;;;4949194;29;21011;-76
2022/12/01 16:24:01;;;;;;;27.60;16.90;;;6.80;99.90;;;;;;4950353;29;20456;-77
2022/12/01 16:26:28;;;;;;;31.90;17.67;;;6.80;99.90;;;;;;4951473;29;20483;-76
2022/12/01 16:28:56;;;;;;;32.03;18.10;;;6.80;99.90;;;;;;4951291;29;20461;-77
2022/12/01 16:31:26;;;;;;;32.20;17.83;;;6.80;99.90;;;;;;4950696;29;21017;-76
2022/12/01 16:34:01;;;;;;;30.03;16.90;;;6.80;99.90;;;;;;4949909;29;20448;-77
2022/12/01 16:36:28;;;;;;;26.43;16.10;;;6.80;99.90;;;;;;4950887;29;21282;-74
2022/12/01 16:38:55;;;;;;;27.27;17.03;;;6.80;99.90;;;;;;4952799;29;20845;-76
2022/12/01 16:41:31;;;;;;;30.10;17.60;;;6.80;99.90;;;;;;4951153;29;20484;-76
2022/12/01 16:43:58;;;;;;;26.83;16.73;;;6.80;99.90;;;;;;4950295;29;20465;-77
2022/12/01 16:46:26;;;;;;;32.90;18.13;;;6.80;99.90;;;;;;4950639;29;20454;-76
2022/12/01 16:48:53;;;;;;;27.93;16.33;;;6.80;99.90;;;;;;4950950;29;20457;-77
2022/12/01 16:51:20;;;;;;;27.40;17.33;;;6.70;99.90;;;;;;4950597;29;20501;-77
2022/12/01 16:53:48;;;;;;;28.27;16.13;;;6.70;99.90;;;;;;4950190;29;20449;-74
2022/12/01 16:56:15;;;;;;;31.63;17.77;;;6.70;99.90;;;;;;4950421;29;20568;-75
2022/12/01 16:58:43;;;;;;;29.60;17.10;;;6.70;99.90;;;;;;4950752;29;20460;-76
2022/12/01 17:01:10;;;;;;;28.10;16.67;;;6.70;99.90;;;;;;4950324;29;20477;-77
2022/12/01 17:03:38;;;;;;;28.33;16.27;;;6.70;99.90;;;;;;4949671;28;20460;-77
2022/12/01 17:06:06;;;;;;;26.80;17.67;;;6.70;99.90;;;;;;4950770;29;20828;-77
2022/12/01 17:08:33;;;;;;;28.93;16.17;;;6.70;99.90;;;;;;4951022;29;20461;-75
2022/12/01 17:11:02;;;;;;;26.70;16.87;;;6.70;99.90;;;;;;4951347;29;20528;-77
2022/12/01 17:13:29;;;;;;;30.53;17.10;;;6.70;99.90;;;;;;4949841;29;20799;-77
2022/12/01 17:16:04;;;;;;;27.20;16.50;;;6.60;99.90;;;;;;4948931;29;20465;-77
2022/12/01 17:18:31;;;;;;;29.73;16.67;;;6.70;99.90;;;;;;4950338;29;20437;-76
2022/12/01 17:21:01;;;;;;;29.37;17.23;;;6.60;99.90;;;;;;4949181;29;20511;-77
2022/12/01 17:23:28;;;;;;;30.60;18.40;;;6.60;99.90;;;;;;4949122;28;20976;-77
2022/12/01 17:25:55;;;;;;;31.90;17.23;;;6.60;99.90;;;;;;4949652;28;20489;-74
2022/12/01 17:28:22;;;;;;;30.43;16.60;;;6.70;99.90;;;;;;4950165;29;20457;-77
2022/12/01 17:30:49;;;;;;;33.40;18.20;;;6.60;99.90;;;;;;4950392;29;20509;-76
2022/12/01 17:33:16;;;;;;;27.27;15.67;;;6.70;99.90;;;;;;4949404;29;20457;-75
2022/12/01 17:35:42;;;;;;;31.67;17.07;;;6.60;99.90;;;;;;4949975;29;20454;-75
2022/12/01 17:38:10;;;;;;;29.50;17.00;;;6.70;99.90;;;;;;4950156;29;20465;-78
2022/12/01 17:40:37;;;;;;;32.00;17.80;;;6.60;99.90;;;;;;4949904;28;20470;-77
2022/12/01 17:43:06;;;;;;;31.20;17.33;;;6.60;99.90;;;;;;4949046;29;20453;-77
2022/12/01 17:45:33;;;;;;;29.40;16.60;;;6.70;99.90;;;;;;4949786;29;20461;-77
2022/12/01 17:48:00;;;;;;;33.83;17.90;;;6.60;99.90;;;;;;4949931;29;20457;-73
2022/12/01 17:50:27;;;;;;;37.03;17.47;;;6.60;99.90;;;;;;4949597;28;20505;-76
2022/12/01 17:52:54;;;;;;;33.57;17.60;;;6.40;99.90;;;;;;4949655;29;20461;-76
2022/12/01 17:55:23;;;;;;;32.30;17.40;;;6.40;99.90;;;;;;4952019;29;20461;-79
2022/12/01 17:57:50;;;;;;;30.03;16.80;;;6.40;99.90;;;;;;4949649;29;21025;-77
2022/12/01 18:00:17;;;;;;;36.77;21.50;;;6.40;99.90;;;;;;4949536;29;20480;-76
2022/12/01 18:02:46;;;;;;;34.17;19.70;;;6.50;99.90;;;;;;4948586;29;20469;-77